Aérodrome :
LOGIN :

S'inscrire | Disclaimer

   EN    FR    IT 

 










Légende :    VFR   VFR Marginal   IFR   IFR Intensif   IFR Très Intensif
Visi : 
Plafond : 
>= 8 km
>= 3000ft
5 à 8 km
1000 à 3000 ft
1500m à 5 km
500 à 1000 ft
800 à 1500m
200 à 500 ft
< 800m
< 200 ft
Symboles :   Orages  Brouillard  Fortes neiges  Fortes précipitations  Vent > 20 kt
SIGMETs :   Divers  Orages  Givrage  Turbulence  Onde Orograph.  Cendres Volcan.






- Altitude de l'aérodrome : 978 ft
- Code IATA : LNZ


LOWL - Linz

DERNIER METAR :
  • 141050Z VRB03KT 9999 -SHRA FEW008 BKN036 05/M00 Q1025 TEMPO SHRASN

METARs EXPIRÉS :
  • 141020Z 31008KT 270V340 9999 FEW028 BKN036 06/M02 Q1025 TEMPO SHRA
  • 140950Z 29009KT 270V330 9999 SCT020 SCT035 06/M01 Q1026 TEMPO SHRA
  • 140920Z 30008KT 9999 SCT020 SCT045 05/M00 Q1026 NOSIG
  • 140850Z 30008KT 260V320 9999 FEW018 SCT045 05/M00 Q1026 NOSIG
  • 140820Z 27008KT 9999 FEW016 04/00 Q1026 NOSIG

TAF TAF LOWL
Valide du 14 à 06h jusqu'au 15 à 06h UTC


140515Z 1406/1506 26005KT 9999 SCT030 BKN080 TX06/1414Z TN00/1503Z
TEMPO 1409/1418 31015KT 4000 SHRASN BKN020
PROB40 1502/1506 VRB02KT 0400 FZFG VV002



MET'MAP, la Météo Aéronautique d'un coup d'oeil ! - Copyright ORBIFLY Décembre 2007 - Disclaimer

ORBIFLY MET'MAP TEAM :

Programmation & Développement : Alexandra Zaïnal
Sur une idée originale de : Baudouin d'Aumeries
Assistance à la programmation : Marc-Olivier Méhu
Soutien technique & logistique : Manuel Goepfert

Contact : metmap@orbifly.com




SOURCES & CREDITS :

   NOAA